Portada
METAR-TAF:

METAR-TAF

Aeropuertos :

Aeropuerto de Pescara-Abruzzo

Pescara, Italia

latitud: 42-26N, longitud: 014-12E, altitud: 10 m

Observación

El informe se hizo hace 31 minutos, a las 02:50 UTC
Viento 6 kt del oeste-suroeste
Temperatura 13°C
Humedad 88%
Presión 1016 hPa
Visibilidad 10 km o más

METAR: LIBP 010250Z AUTO 24006KT 9999 SCT100/// 13/11 Q1016

Hora: 05:21 (03:21 UTC)

Pronóstico

El informe se hizo hace 4 horas y 21 minutos, a las 23:00 UTC
Pronóstico válido del 01 a las 00 UTC al 01 a las 24 UTC
Viento 6 kt con dirección variable
Visibilidad 10 km o más
Escasas nubes a una altura de 6000 ft
Evolucionando progresivamente
del 01 a las 11 UTC al 01 a las 13 UTC
Viento 12 kt del norte

TAF: LIBP 312300Z 0100/0124 VRB06KT 9999 FEW060 BECMG 0111/0113 35012KT

Observaciones y pronósticos meteorológicos de más de 4000 aeropuertos (mensajes METAR y TAF).

Los puntos amarillos y rojos representan las estaciones disponibles.

Ponga el ratón en el punto deseado para ver el nombre de la estación.

Haga clic para ver las observaciones y los pronósticos meteorológicos.

Para cambiar el mapa : haga clic en los botones verdes con una cruz de color negro para hacer un zoom, en el botón verde con un guión para alejar o en las flechas verdes para mapas adyacentes.


METAR-TAF: